createdAt,value
2018-05-29T00:02:26.619Z,16.90
2018-05-29T00:04:54.224Z,17.00
2018-05-29T00:07:21.801Z,17.00
2018-05-29T00:09:49.395Z,17.00
2018-05-29T00:12:16.963Z,17.00
2018-05-29T00:14:44.792Z,17.00
2018-05-29T00:17:12.436Z,17.00
2018-05-29T00:19:40.044Z,17.00
2018-05-29T00:22:08.382Z,16.90
2018-05-29T00:24:35.974Z,16.90
2018-05-29T00:27:03.572Z,16.90
2018-05-29T00:29:31.153Z,16.90
2018-05-29T00:31:59.493Z,16.90
2018-05-29T00:34:27.090Z,16.90
2018-05-29T00:36:55.338Z,16.90
2018-05-29T00:39:22.953Z,16.90
2018-05-29T00:41:50.522Z,16.80
2018-05-29T00:44:18.105Z,16.80
2018-05-29T00:46:45.674Z,16.80
2018-05-29T00:49:13.263Z,16.70
2018-05-29T00:51:40.822Z,16.60
2018-05-29T00:54:08.431Z,16.60
2018-05-29T00:56:36.131Z,16.60
2018-05-29T00:59:04.683Z,16.60
2018-05-29T01:01:32.326Z,16.60
2018-05-29T01:03:59.942Z,16.60
2018-05-29T01:06:28.282Z,16.60
2018-05-29T01:08:55.885Z,16.50
2018-05-29T01:11:23.480Z,16.60
2018-05-29T01:13:51.821Z,16.50
2018-05-29T01:16:20.172Z,16.60
2018-05-29T01:18:48.519Z,16.70
2018-05-29T01:21:16.111Z,16.60
2018-05-29T01:23:43.694Z,16.70
2018-05-29T01:26:12.059Z,16.70
2018-05-29T01:28:39.718Z,16.70
2018-05-29T01:31:07.374Z,16.70
2018-05-29T01:33:35.194Z,16.60
2018-05-29T01:36:03.677Z,16.50
2018-05-29T01:38:31.419Z,16.50
2018-05-29T01:40:59.317Z,16.50
2018-05-29T01:43:27.905Z,16.50
2018-05-29T01:45:55.538Z,16.50
2018-05-29T01:48:24.499Z,16.40
2018-05-29T01:50:52.086Z,16.40
2018-05-29T01:53:19.658Z,16.50
2018-05-29T01:55:47.312Z,16.50
2018-05-29T01:58:15.302Z,16.50
2018-05-29T02:00:43.249Z,16.50
2018-05-29T02:03:12.017Z,16.40
2018-05-29T02:05:39.894Z,16.40
2018-05-29T02:08:07.505Z,16.50
2018-05-29T02:10:35.091Z,16.50
2018-05-29T02:13:02.686Z,16.50
2018-05-29T02:15:30.279Z,16.50
2018-05-29T02:17:57.854Z,16.60
2018-05-29T02:20:25.503Z,16.60
2018-05-29T02:22:53.921Z,16.80
2018-05-29T02:25:21.573Z,16.70
2018-05-29T02:27:49.903Z,16.80
2018-05-29T02:30:18.963Z,16.90
2018-05-29T02:32:46.807Z,16.90
2018-05-29T02:35:15.582Z,17.00
2018-05-29T02:37:43.233Z,17.10
2018-05-29T02:40:10.815Z,17.00
2018-05-29T02:42:38.411Z,17.10
2018-05-29T02:45:06.746Z,17.10
2018-05-29T02:47:34.341Z,17.10
2018-05-29T02:50:03.526Z,17.10
2018-05-29T02:52:31.117Z,17.00
2018-05-29T02:54:58.690Z,17.10
2018-05-29T02:57:26.369Z,17.10
2018-05-29T02:59:54.118Z,17.00
2018-05-29T03:02:21.800Z,16.90
2018-05-29T03:04:49.882Z,16.90
2018-05-29T03:07:19.299Z,16.90
2018-05-29T03:09:47.214Z,16.90
2018-05-29T03:12:15.041Z,17.00
2018-05-29T03:14:42.683Z,17.10
2018-05-29T03:17:10.307Z,17.20
2018-05-29T03:19:37.878Z,17.20
2018-05-29T03:22:05.467Z,17.20
2018-05-29T03:24:33.878Z,17.20
2018-05-29T03:27:01.474Z,17.20
2018-05-29T03:29:29.810Z,17.20
2018-05-29T03:31:57.461Z,17.20
2018-05-29T03:34:25.116Z,17.10
2018-05-29T03:36:53.506Z,17.10
2018-05-29T03:39:21.942Z,17.20
2018-05-29T03:41:50.034Z,17.20
2018-05-29T03:44:17.967Z,17.20
2018-05-29T03:46:46.776Z,17.30
2018-05-29T03:49:15.206Z,17.30
2018-05-29T03:51:42.778Z,17.30
2018-05-29T03:54:10.377Z,17.40
2018-05-29T03:56:37.951Z,17.40
2018-05-29T03:59:05.546Z,17.40
2018-05-29T04:01:33.886Z,17.40
2018-05-29T04:04:01.478Z,17.30
2018-05-29T04:06:29.072Z,17.40
2018-05-29T04:08:56.711Z,17.40
2018-05-29T04:11:25.127Z,17.20
2018-05-29T04:13:52.769Z,17.20
2018-05-29T04:16:20.362Z,17.10
2018-05-29T04:18:48.020Z,17.10
2018-05-29T04:21:15.910Z,17.10
2018-05-29T04:23:43.729Z,17.00
2018-05-29T04:26:12.086Z,17.10
2018-05-29T04:28:39.684Z,17.10
2018-05-29T04:31:07.277Z,17.10
2018-05-29T04:33:35.711Z,17.10
2018-05-29T04:36:03.286Z,17.00
2018-05-29T04:38:30.874Z,17.00
2018-05-29T04:40:58.486Z,17.00
2018-05-29T04:43:26.834Z,17.20
2018-05-29T04:45:54.512Z,17.20
2018-05-29T04:48:22.222Z,17.20
2018-05-29T04:50:50.699Z,17.30
2018-05-29T04:53:18.316Z,17.30
2018-05-29T04:55:46.721Z,17.30
2018-05-29T04:58:14.535Z,17.30
2018-05-29T05:00:42.898Z,17.40
2018-05-29T05:03:10.462Z,17.40
2018-05-29T05:05:38.047Z,17.40
2018-05-29T05:08:05.608Z,17.30
2018-05-29T05:10:33.194Z,17.40
2018-05-29T05:13:00.765Z,17.40
2018-05-29T05:15:28.355Z,17.20
2018-05-29T05:17:56.019Z,17.20
2018-05-29T05:20:23.741Z,17.20
2018-05-29T05:22:51.443Z,17.20
2018-05-29T05:25:19.409Z,17.30
2018-05-29T05:27:47.043Z,17.30
2018-05-29T05:30:14.715Z,17.30
2018-05-29T05:32:42.343Z,17.30
2018-05-29T05:35:09.927Z,17.30
2018-05-29T05:37:37.495Z,17.30
2018-05-29T05:40:05.080Z,17.20
2018-05-29T05:42:32.650Z,17.30
2018-05-29T05:45:00.238Z,17.30
2018-05-29T05:47:27.808Z,17.40
2018-05-29T05:49:55.690Z,17.40
2018-05-29T05:52:23.306Z,17.40
2018-05-29T05:54:51.705Z,17.50
2018-05-29T05:57:19.917Z,17.40
2018-05-29T05:59:47.689Z,17.40
2018-05-29T06:02:15.420Z,17.50
2018-05-29T06:04:43.460Z,17.50
2018-05-29T06:07:11.023Z,17.40
2018-05-29T06:09:39.133Z,17.40
2018-05-29T06:12:06.690Z,17.40
2018-05-29T06:14:34.286Z,17.40
2018-05-29T06:17:02.617Z,17.50
2018-05-29T06:19:30.944Z,17.60
2018-05-29T06:21:58.529Z,17.50
2018-05-29T06:24:26.214Z,17.50
2018-05-29T06:26:53.918Z,17.60
2018-05-29T06:29:22.293Z,17.60
2018-05-29T06:31:49.945Z,17.60
2018-05-29T06:34:17.638Z,17.60
2018-05-29T06:36:45.548Z,17.60
2018-05-29T06:39:13.186Z,17.60
2018-05-29T06:41:40.777Z,17.60
2018-05-29T06:44:08.345Z,17.60
2018-05-29T06:46:35.938Z,17.60
2018-05-29T06:49:03.505Z,17.70
2018-05-29T06:51:31.094Z,17.80
2018-05-29T06:53:59.422Z,17.90
2018-05-29T06:56:27.137Z,17.90
2018-05-29T06:58:54.799Z,17.90
2018-05-29T07:01:23.237Z,17.90
2018-05-29T07:03:51.511Z,17.90
2018-05-29T07:06:19.188Z,17.90
2018-05-29T07:08:46.894Z,17.90
2018-05-29T07:11:15.870Z,18.10
2018-05-29T07:13:43.467Z,18.10
2018-05-29T07:16:11.050Z,18.20
2018-05-29T07:18:38.614Z,18.30
2018-05-29T07:21:06.192Z,18.30
2018-05-29T07:23:33.753Z,18.20
2018-05-29T07:26:01.325Z,18.20
2018-05-29T07:28:28.890Z,18.20
2018-05-29T07:30:56.695Z,18.20
2018-05-29T07:33:25.745Z,18.40
2018-05-29T07:35:53.394Z,18.30
2018-05-29T07:38:21.806Z,18.30
2018-05-29T07:40:49.420Z,18.30
2018-05-29T07:43:18.047Z,18.50
2018-05-29T07:45:46.854Z,18.70
2018-05-29T07:48:14.581Z,18.70
2018-05-29T07:50:42.157Z,18.60
2018-05-29T07:53:10.497Z,18.60
2018-05-29T07:55:38.057Z,18.60
2018-05-29T07:58:05.633Z,18.80
2018-05-29T08:00:33.197Z,18.70
2018-05-29T08:03:00.778Z,18.70
2018-05-29T08:05:28.342Z,18.60
2018-05-29T08:07:55.939Z,18.50
2018-05-29T08:10:23.543Z,18.60
2018-05-29T08:12:51.231Z,18.50
2018-05-29T08:15:19.894Z,18.60
2018-05-29T08:17:48.173Z,18.50
2018-05-29T08:20:15.790Z,18.50
2018-05-29T08:22:43.379Z,18.50
2018-05-29T08:25:10.933Z,18.50
2018-05-29T08:27:39.274Z,18.70
2018-05-29T08:30:08.097Z,18.70
2018-05-29T08:32:35.682Z,18.70
2018-05-29T08:35:03.247Z,18.70
2018-05-29T08:37:30.895Z,18.80
2018-05-29T08:39:58.465Z,18.90
2018-05-29T08:42:26.094Z,18.90
2018-05-29T08:44:53.662Z,18.90
2018-05-29T08:47:22.010Z,18.80
2018-05-29T08:49:49.567Z,18.80
2018-05-29T08:52:17.129Z,18.80
2018-05-29T08:54:44.714Z,18.80
2018-05-29T08:57:12.278Z,18.70
2018-05-29T08:59:39.945Z,18.80
2018-05-29T09:02:07.595Z,18.80
2018-05-29T09:04:36.023Z,19.00
2018-05-29T09:07:03.768Z,19.00
2018-05-29T09:09:32.591Z,19.00
2018-05-29T09:12:00.401Z,19.00
2018-05-29T09:14:29.274Z,19.70
2018-05-29T09:16:56.853Z,19.70
2018-05-29T09:19:24.442Z,19.40
2018-05-29T09:21:52.001Z,19.10
2018-05-29T09:24:19.586Z,19.20
2018-05-29T09:26:47.146Z,19.40
2018-05-29T09:29:15.965Z,19.30
2018-05-29T09:31:43.532Z,19.30
2018-05-29T09:34:11.166Z,19.50
2018-05-29T09:36:39.541Z,19.50
2018-05-29T09:39:07.174Z,19.50
2018-05-29T09:41:35.083Z,19.30
2018-05-29T09:44:02.720Z,19.30
2018-05-29T09:46:30.546Z,19.30
2018-05-29T09:51:39.834Z,18.80
2018-05-29T09:54:08.227Z,18.90
2018-05-29T09:56:36.621Z,18.90
2018-05-29T09:59:05.034Z,19.00
2018-05-29T10:01:33.457Z,18.90
2018-05-29T10:04:01.511Z,18.90
2018-05-29T10:06:29.470Z,18.80
2018-05-29T10:08:57.083Z,19.00
2018-05-29T10:11:24.641Z,19.00
2018-05-29T10:13:53.001Z,19.30
2018-05-29T10:16:20.562Z,19.30
2018-05-29T10:18:48.126Z,19.40
2018-05-29T10:21:15.711Z,19.10
2018-05-29T10:23:43.273Z,19.50
2018-05-29T10:26:10.923Z,19.60
2018-05-29T10:28:38.524Z,20.00
2018-05-29T10:31:06.700Z,19.90
2018-05-29T10:33:34.309Z,20.10
2018-05-29T10:36:02.000Z,19.80
2018-05-29T10:38:30.330Z,19.40
2018-05-29T10:40:58.924Z,18.90
2018-05-29T10:43:26.621Z,18.80
2018-05-29T10:45:54.174Z,19.00
2018-05-29T10:48:21.838Z,19.30
2018-05-29T10:50:49.418Z,19.50
2018-05-29T10:53:16.982Z,19.50
2018-05-29T10:55:44.566Z,19.70
2018-05-29T10:58:12.214Z,19.90
2018-05-29T11:00:39.854Z,19.70
2018-05-29T11:03:08.802Z,20.30
2018-05-29T11:05:36.442Z,20.30
2018-05-29T11:08:04.824Z,20.00
2018-05-29T11:10:32.519Z,20.00
2018-05-29T11:13:00.282Z,19.50
2018-05-29T11:15:27.892Z,19.50
2018-05-29T11:17:55.502Z,19.50
2018-05-29T11:20:23.081Z,19.40
2018-05-29T11:22:50.645Z,19.30
2018-05-29T11:25:18.282Z,19.40
2018-05-29T11:27:45.842Z,19.30
2018-05-29T11:30:14.221Z,19.20
2018-05-29T11:32:42.550Z,19.40
2018-05-29T11:35:10.178Z,19.30
2018-05-29T11:37:37.858Z,19.70
2018-05-29T11:40:06.362Z,19.50
2018-05-29T11:42:34.354Z,19.50
2018-05-29T11:45:02.401Z,19.60
2018-05-29T11:47:30.265Z,19.70
2018-05-29T11:49:57.890Z,19.40
2018-05-29T11:52:25.465Z,19.50
2018-05-29T11:54:53.043Z,19.40
2018-05-29T11:57:20.622Z,19.50
2018-05-29T11:59:48.183Z,19.50
2018-05-29T12:02:15.757Z,19.40
2018-05-29T12:04:43.322Z,19.50
2018-05-29T12:07:10.935Z,19.80
2018-05-29T12:09:38.542Z,20.40
2018-05-29T12:12:18.730Z,20.10
2018-05-29T12:14:47.062Z,19.90
2018-05-29T12:17:14.699Z,19.90
2018-05-29T12:19:43.030Z,19.90
2018-05-29T12:22:10.694Z,19.90
2018-05-29T12:24:38.287Z,19.90
2018-05-29T12:27:05.897Z,20.20
2018-05-29T12:29:33.841Z,20.30
2018-05-29T12:32:01.690Z,20.30
2018-05-29T12:34:30.289Z,20.30
2018-05-29T12:36:57.889Z,20.30
2018-05-29T12:39:25.499Z,20.30
2018-05-29T12:41:53.066Z,20.60
2018-05-29T12:44:20.620Z,20.50
2018-05-29T12:46:48.201Z,20.30
2018-05-29T12:49:15.761Z,20.20
2018-05-29T12:51:43.381Z,20.00
2018-05-29T12:54:11.071Z,19.80
2018-05-29T12:56:38.683Z,19.90
2018-05-29T12:59:06.322Z,19.80
2018-05-29T13:01:33.972Z,19.60
2018-05-29T13:04:01.971Z,19.80
2018-05-29T13:06:29.670Z,19.90
2018-05-29T13:08:57.283Z,19.80
2018-05-29T13:11:25.609Z,19.70
2018-05-29T13:13:53.194Z,19.60
2018-05-29T13:16:20.760Z,19.80
2018-05-29T13:18:48.351Z,20.20
2018-05-29T13:21:15.906Z,20.40
2018-05-29T13:23:43.485Z,21.20
2018-05-29T13:26:11.118Z,21.20
2018-05-29T13:28:39.513Z,20.70
2018-05-29T13:31:07.162Z,20.60
2018-05-29T13:33:34.839Z,20.40
2018-05-29T13:36:02.595Z,20.70
2018-05-29T13:38:30.337Z,20.70
2018-05-29T13:40:57.946Z,20.60
2018-05-29T13:43:25.520Z,20.50
2018-05-29T13:45:53.084Z,20.50
2018-05-29T13:48:20.672Z,20.30
2018-05-29T13:50:48.253Z,20.40
2018-05-29T13:53:15.839Z,20.50
2018-05-29T13:55:43.403Z,20.50
2018-05-29T13:58:11.011Z,20.60
2018-05-29T14:00:38.618Z,20.70
2018-05-29T14:03:07.127Z,20.60
2018-05-29T14:05:34.733Z,20.60
2018-05-29T14:08:03.415Z,20.70
2018-05-29T14:10:31.801Z,21.00
2018-05-29T14:12:59.423Z,21.00
2018-05-29T14:15:27.013Z,21.10
2018-05-29T14:17:54.581Z,21.00
2018-05-29T14:20:22.165Z,20.90
2018-05-29T14:22:49.739Z,21.10
2018-05-29T14:25:17.325Z,21.40
2018-05-29T14:27:44.878Z,21.90
2018-05-29T14:30:12.459Z,22.10
2018-05-29T14:32:40.810Z,22.00
2018-05-29T14:35:08.449Z,22.00
2018-05-29T14:37:36.974Z,21.80
2018-05-29T14:40:05.389Z,22.20
2018-05-29T14:42:33.075Z,22.20
2018-05-29T14:45:00.795Z,22.70
2018-05-29T14:47:29.209Z,22.90
2018-05-29T14:49:56.821Z,22.90
2018-05-29T14:52:24.418Z,22.80
2018-05-29T14:54:51.985Z,22.70
2018-05-29T14:57:19.550Z,22.70
2018-05-29T14:59:47.134Z,22.70
2018-05-29T15:02:14.698Z,22.60
2018-05-29T15:04:42.278Z,22.60
2018-05-29T15:07:09.848Z,22.10
2018-05-29T15:09:37.451Z,21.30
2018-05-29T15:12:05.828Z,20.40
2018-05-29T15:14:34.394Z,20.30
2018-05-29T15:17:02.280Z,20.20
2018-05-29T15:19:29.950Z,20.50
2018-05-29T15:21:58.659Z,20.70
2018-05-29T15:24:26.213Z,20.90
2018-05-29T15:26:53.795Z,21.20
2018-05-29T15:29:21.390Z,21.60
2018-05-29T15:31:48.986Z,21.90
2018-05-29T15:34:17.316Z,22.00
2018-05-29T15:36:44.921Z,21.90
2018-05-29T15:39:14.874Z,22.00
2018-05-29T15:41:43.221Z,22.40
2018-05-29T15:44:10.822Z,22.40
2018-05-29T15:46:38.583Z,22.50
2018-05-29T15:49:06.182Z,22.90
2018-05-29T15:51:36.649Z,22.60
2018-05-29T15:54:04.251Z,22.60
2018-05-29T15:56:31.857Z,22.20
2018-05-29T15:59:00.347Z,21.60
2018-05-29T16:01:28.741Z,20.80
2018-05-29T16:03:56.378Z,20.80
2018-05-29T16:06:23.958Z,20.60
2018-05-29T16:08:51.523Z,20.50
2018-05-29T16:11:19.115Z,20.50
2018-05-29T16:13:46.694Z,20.70
2018-05-29T16:16:14.370Z,20.70
2018-05-29T16:18:41.955Z,20.70
2018-05-29T16:21:10.346Z,21.10
2018-05-29T16:23:37.991Z,21.00
2018-05-29T16:26:05.617Z,21.10
2018-05-29T16:28:33.386Z,21.40
2018-05-29T16:31:01.092Z,21.70
2018-05-29T16:33:29.672Z,22.50
2018-05-29T16:35:57.301Z,22.40
2018-05-29T16:38:24.875Z,22.70
2018-05-29T16:40:52.443Z,22.80
2018-05-29T16:43:20.025Z,23.10
2018-05-29T16:45:47.580Z,23.10
2018-05-29T16:48:15.157Z,22.90
2018-05-29T16:50:42.722Z,22.60
2018-05-29T16:53:10.324Z,22.30
2018-05-29T16:55:38.079Z,22.20
2018-05-29T16:58:06.102Z,22.10
2018-05-29T17:00:34.488Z,22.00
2018-05-29T17:03:03.085Z,22.20
2018-05-29T17:05:31.560Z,22.50
2018-05-29T17:07:59.951Z,22.80
2018-05-29T17:10:27.506Z,22.70
2018-05-29T17:12:55.180Z,22.90
2018-05-29T17:15:22.787Z,23.30
2018-05-29T17:17:50.433Z,23.50
2018-05-29T17:20:17.988Z,23.50
2018-05-29T17:22:45.564Z,23.30
2018-05-29T17:25:13.153Z,22.90
2018-05-29T17:27:41.021Z,22.60
2018-05-29T17:30:08.698Z,22.30
2018-05-29T17:32:36.442Z,22.10
2018-05-29T17:35:04.155Z,21.90
2018-05-29T17:37:32.031Z,21.70
2018-05-29T17:40:00.403Z,21.40
2018-05-29T17:42:28.604Z,21.40
2018-05-29T17:44:56.223Z,21.20
2018-05-29T17:47:24.542Z,21.30
2018-05-29T17:49:52.102Z,21.30
2018-05-29T17:52:19.705Z,21.40
2018-05-29T17:54:47.276Z,21.40
2018-05-29T17:57:14.878Z,21.40
2018-05-29T17:59:42.463Z,21.40
2018-05-29T18:02:10.152Z,21.70
2018-05-29T18:04:38.565Z,22.00
2018-05-29T18:07:07.199Z,22.00
2018-05-29T18:09:34.931Z,22.40
2018-05-29T18:12:02.577Z,22.50
2018-05-29T18:14:30.334Z,22.30
2018-05-29T18:16:58.002Z,22.00
2018-05-29T18:19:25.578Z,21.70
2018-05-29T18:21:53.141Z,21.20
2018-05-29T18:24:20.722Z,20.90
2018-05-29T18:26:48.289Z,20.70
2018-05-29T18:29:15.891Z,20.50
2018-05-29T18:31:43.462Z,20.30
2018-05-29T18:34:11.134Z,20.00
2018-05-29T18:36:38.733Z,19.90
2018-05-29T18:39:07.161Z,20.00
2018-05-29T18:41:34.745Z,20.00
2018-05-29T18:44:02.432Z,20.00
2018-05-29T18:46:30.064Z,19.80
2018-05-29T18:48:58.452Z,19.60
2018-05-29T18:51:26.030Z,19.60
2018-05-29T18:53:53.610Z,19.50
2018-05-29T18:56:21.174Z,19.40
2018-05-29T18:58:48.753Z,19.40
2018-05-29T19:01:16.318Z,19.40
2018-05-29T19:03:43.901Z,19.30
2018-05-29T19:06:11.486Z,19.20
2018-05-29T19:08:39.108Z,19.20
2018-05-29T19:11:07.460Z,19.10
2018-05-29T19:13:35.068Z,19.10
2018-05-29T19:16:02.766Z,19.10
2018-05-29T19:18:30.567Z,19.00
2018-05-29T19:20:58.174Z,18.90
2018-05-29T19:23:25.746Z,18.90
2018-05-29T19:25:53.329Z,18.90
2018-05-29T19:28:20.897Z,19.10
2018-05-29T19:30:48.477Z,19.00
2018-05-29T19:33:16.038Z,18.80
2018-05-29T19:35:43.621Z,18.70
2018-05-29T19:38:11.240Z,18.70
2018-05-29T19:40:38.841Z,18.60
2018-05-29T19:43:06.478Z,18.70
2018-05-29T19:45:34.355Z,18.80
2018-05-29T19:48:01.999Z,18.80
2018-05-29T19:50:30.399Z,18.90
2018-05-29T19:52:57.982Z,18.90
2018-05-29T19:55:26.330Z,19.30
2018-05-29T19:57:53.896Z,19.30
2018-05-29T20:00:21.468Z,19.40
2018-05-29T20:02:50.265Z,19.50
2018-05-29T20:05:17.849Z,19.60
2018-05-29T20:07:45.405Z,19.70
2018-05-29T20:10:12.981Z,19.60
2018-05-29T20:12:40.553Z,19.60
2018-05-29T20:15:08.252Z,19.60
2018-05-29T20:17:35.817Z,19.50
2018-05-29T20:20:03.431Z,19.40
2018-05-29T20:22:31.069Z,19.10
2018-05-29T20:24:58.673Z,18.90
2018-05-29T20:27:27.001Z,18.60
2018-05-29T20:29:54.558Z,18.50
2018-05-29T20:32:22.133Z,18.70
2018-05-29T20:34:49.689Z,18.90
2018-05-29T20:37:17.270Z,19.00
2018-05-29T20:39:44.833Z,19.10
2018-05-29T20:42:13.173Z,18.90
2018-05-29T20:44:40.725Z,18.90
2018-05-29T20:47:08.308Z,19.10
2018-05-29T20:49:35.905Z,19.10
2018-05-29T20:52:04.446Z,19.20
2018-05-29T20:54:32.035Z,19.20
2018-05-29T20:56:59.712Z,19.20
2018-05-29T20:59:28.128Z,19.10
2018-05-29T21:01:55.702Z,19.00
2018-05-29T21:04:23.257Z,19.10
2018-05-29T21:06:50.832Z,19.20
2018-05-29T21:09:18.393Z,19.20
2018-05-29T21:11:45.965Z,19.20
2018-05-29T21:14:13.534Z,19.30
2018-05-29T21:16:41.194Z,19.50
2018-05-29T21:19:08.771Z,19.40
2018-05-29T21:21:39.237Z,19.20
2018-05-29T21:24:06.813Z,19.20
2018-05-29T21:26:34.404Z,19.30
2018-05-29T21:29:01.995Z,19.30
2018-05-29T21:31:29.614Z,19.20
2018-05-29T21:33:57.193Z,19.10
2018-05-29T21:36:24.774Z,19.00
2018-05-29T21:38:52.329Z,18.80
2018-05-29T21:41:19.893Z,18.60
2018-05-29T21:43:47.478Z,18.50
2018-05-29T21:46:15.070Z,18.80
2018-05-29T21:48:42.673Z,18.80
2018-05-29T21:51:11.178Z,18.50
2018-05-29T21:53:39.637Z,18.40
2018-05-29T21:56:07.732Z,18.30
2018-05-29T21:58:35.365Z,18.30
2018-05-29T22:01:03.205Z,18.10
2018-05-29T22:03:31.575Z,17.90
2018-05-29T22:05:59.619Z,17.90
2018-05-29T22:08:27.205Z,18.20
2018-05-29T22:10:54.761Z,18.30
2018-05-29T22:13:23.209Z,18.40
2018-05-29T22:15:50.765Z,18.40
2018-05-29T22:18:18.345Z,18.30
2018-05-29T22:20:45.910Z,18.20
2018-05-29T22:23:13.502Z,18.10
2018-05-29T22:25:41.922Z,18.10
2018-05-29T22:28:09.541Z,18.10
2018-05-29T22:30:37.170Z,18.10
2018-05-29T22:33:04.826Z,18.10
2018-05-29T22:35:32.713Z,18.20
2018-05-29T22:38:00.345Z,18.10
2018-05-29T22:40:27.957Z,18.00
2018-05-29T22:42:56.297Z,18.10
2018-05-29T22:45:23.854Z,18.00
2018-05-29T22:47:51.438Z,18.10
2018-05-29T22:50:18.997Z,18.10
2018-05-29T22:52:46.578Z,18.00
2018-05-29T22:55:15.638Z,17.90
2018-05-29T22:57:43.988Z,18.00
2018-05-29T23:00:11.583Z,18.00
2018-05-29T23:02:39.186Z,18.10
2018-05-29T23:05:07.038Z,18.10
2018-05-29T23:07:35.130Z,18.10
2018-05-29T23:10:02.826Z,18.10
2018-05-29T23:12:30.459Z,18.30
2018-05-29T23:14:58.086Z,18.40
2018-05-29T23:17:25.656Z,18.30
2018-05-29T23:19:53.238Z,18.10
2018-05-29T23:22:20.801Z,18.10
2018-05-29T23:24:48.389Z,17.90
2018-05-29T23:27:15.951Z,17.80
2018-05-29T23:29:43.538Z,17.80
2018-05-29T23:32:11.197Z,17.80
2018-05-29T23:34:39.086Z,17.70
2018-05-29T23:37:06.803Z,17.80
2018-05-29T23:39:34.419Z,17.70
2018-05-29T23:42:02.773Z,17.40
2018-05-29T23:44:30.374Z,17.40
2018-05-29T23:46:58.741Z,17.40
2018-05-29T23:49:26.381Z,17.40
2018-05-29T23:51:53.939Z,17.30
2018-05-29T23:54:21.522Z,17.30
2018-05-29T23:56:49.086Z,17.20
2018-05-29T23:59:16.664Z,17.10
